Hovedside
METAR-TAF:

METAR-TAF

Lufthavner :

Tripoli, Libya

Mitiga International Airport

breddegrad: 32-54N, lengdegrad: 13-17E, høyde over havet: 11 m

METAR: fraværende

Tid: 23:34 (21:34 UTC)

Varsel

Denne rapporten ble laget for 10 timer og 34 minutter siden, klokken 11:00 UTC
Varsel gyldig fra 18. klokken 12 UTC til 19. klokken 12 UTC
Vind 2 kt fra skiftende retning
Sikt: 8000 m
Få skyer i en høyde av 2500 ft
Blir
fra 19. klokken 04 UTC til 19. klokken 06 UTC
Vind 10 kt fra Sør-sørøst

TAF: HLLM 181100Z 1812/1912 35010KT 9999 FEW025 BECMG1822/1824 VRB02KT 8000 NSC BECMG 1904/1906 16010KT

Værobservasjoner og værvarsel for over 4000 flyplasser (METAR- og TAF-rapporter).

Tilgjengelige stasjoner er representert av de røde og gule prikkene på kartet.

Hold musepekeren over prikken for å se navnet på stasjonen.

Klikk så for å se værobservasjoner og -varsler.

For å forandre kartet kan du klikke på den grønne knappen med svart kryss for å zoome inn, på den grønne knappen med strek for å zoome ut, eller på de grønne pilene for å se tilstøtende kart.


METAR-TAF: